createdAt,value
2018-11-04T00:01:34.870Z,5.71
2018-11-04T00:04:03.600Z,5.70
2018-11-04T00:06:32.290Z,5.75
2018-11-04T00:09:01.016Z,5.57
2018-11-04T00:11:30.067Z,5.46
2018-11-04T00:13:58.769Z,5.45
2018-11-04T00:19:01.424Z,5.49
2018-11-04T00:21:30.225Z,5.52
2018-11-04T00:23:59.002Z,5.41
2018-11-04T00:26:27.862Z,5.35
2018-11-04T00:28:56.626Z,5.35
2018-11-04T00:31:25.311Z,5.39
2018-11-04T00:33:54.146Z,5.37
2018-11-04T00:36:22.936Z,5.36
2018-11-04T00:38:51.645Z,5.32
2018-11-04T00:41:20.430Z,5.29
2018-11-04T00:43:49.255Z,5.34
2018-11-04T00:46:17.965Z,5.28
2018-11-04T00:48:46.891Z,5.35
2018-11-04T00:51:15.631Z,5.31
2018-11-04T00:53:44.350Z,5.25
2018-11-04T00:56:13.108Z,5.23
2018-11-04T00:58:41.820Z,5.15
2018-11-04T01:01:10.590Z,5.13
2018-11-04T01:03:39.840Z,5.16
2018-11-04T01:06:09.752Z,5.25
2018-11-04T01:08:38.443Z,5.29
2018-11-04T01:11:07.170Z,5.29
2018-11-04T01:13:35.874Z,5.20
2018-11-04T01:16:04.676Z,5.29
2018-11-04T01:18:33.579Z,5.35
2018-11-04T01:21:02.386Z,5.24
2018-11-04T01:23:31.131Z,5.13
2018-11-04T01:25:59.877Z,5.09
2018-11-04T01:28:28.608Z,5.19
2018-11-04T01:30:57.301Z,5.27
2018-11-04T01:33:26.177Z,5.21
2018-11-04T01:35:54.867Z,5.25
2018-11-04T01:38:23.535Z,5.28
2018-11-04T01:40:52.638Z,5.26
2018-11-04T01:43:21.316Z,5.14
2018-11-04T01:45:50.082Z,5.04
2018-11-04T01:48:18.883Z,5.05
2018-11-04T01:50:47.670Z,5.12
2018-11-04T01:53:16.362Z,5.19
2018-11-04T01:55:45.189Z,5.22
2018-11-04T01:58:13.894Z,5.28
2018-11-04T02:00:42.606Z,5.21
2018-11-04T02:03:11.581Z,5.05
2018-11-04T02:05:40.294Z,5.06
2018-11-04T02:08:09.711Z,5.10
2018-11-04T02:10:38.521Z,5.13
2018-11-04T02:13:07.207Z,5.05
2018-11-04T02:15:35.891Z,4.92
2018-11-04T02:18:04.705Z,4.98
2018-11-04T02:20:33.390Z,4.93
2018-11-04T02:23:02.086Z,4.86
2018-11-04T02:25:30.834Z,4.96
2018-11-04T02:27:59.551Z,4.95
2018-11-04T02:30:28.210Z,5.01
2018-11-04T02:32:57.028Z,4.99
2018-11-04T02:35:25.742Z,5.00
2018-11-04T02:37:54.472Z,4.99
2018-11-04T02:40:23.287Z,4.93
2018-11-04T02:42:52.038Z,4.89
2018-11-04T02:45:20.815Z,4.82
2018-11-04T02:47:49.648Z,4.80
2018-11-04T02:50:18.481Z,4.83
2018-11-04T02:52:47.133Z,4.93
2018-11-04T02:55:15.879Z,4.93
2018-11-04T02:57:44.602Z,4.95
2018-11-04T03:00:14.899Z,4.97
2018-11-04T03:02:44.003Z,5.00
2018-11-04T03:05:12.888Z,4.99
2018-11-04T03:07:42.292Z,5.00
2018-11-04T03:10:12.329Z,5.01
2018-11-04T03:12:41.230Z,5.01
2018-11-04T03:15:10.202Z,4.98
2018-11-04T03:17:40.040Z,5.03
2018-11-04T03:20:08.805Z,5.08
2018-11-04T03:22:37.543Z,4.99
2018-11-04T03:25:07.056Z,5.02
2018-11-04T03:27:35.839Z,5.02
2018-11-04T03:30:04.672Z,5.15
2018-11-04T03:32:33.510Z,5.16
2018-11-04T03:35:02.195Z,5.20
2018-11-04T03:37:30.979Z,5.34
2018-11-04T03:39:59.723Z,5.42
2018-11-04T03:42:28.408Z,5.48
2018-11-04T03:44:57.111Z,5.59
2018-11-04T03:47:25.994Z,5.69
2018-11-04T03:49:54.708Z,5.78
2018-11-04T03:52:23.421Z,5.79
2018-11-04T03:54:52.182Z,5.86
2018-11-04T03:57:20.893Z,5.88
2018-11-04T03:59:49.611Z,6.01
2018-11-04T04:02:18.422Z,6.11
2018-11-04T04:04:47.116Z,6.16
2018-11-04T04:07:16.122Z,6.23
2018-11-04T04:09:44.942Z,6.37
2018-11-04T04:12:13.651Z,6.43
2018-11-04T04:14:42.357Z,6.48
2018-11-04T04:17:11.228Z,6.51
2018-11-04T04:19:39.904Z,6.42
2018-11-04T04:22:08.591Z,6.60
2018-11-04T04:24:37.412Z,6.54
2018-11-04T04:27:06.278Z,6.67
2018-11-04T04:29:34.995Z,6.66
2018-11-04T04:32:03.888Z,6.70
2018-11-04T04:34:32.602Z,6.73
2018-11-04T04:37:01.327Z,6.77
2018-11-04T04:39:30.061Z,6.83
2018-11-04T04:41:58.871Z,6.92
2018-11-04T04:44:27.654Z,6.93
2018-11-04T04:46:56.501Z,6.95
2018-11-04T04:49:25.242Z,7.07
2018-11-04T04:51:53.986Z,7.14
2018-11-04T04:54:22.738Z,7.20
2018-11-04T04:56:51.438Z,7.22
2018-11-04T04:59:20.185Z,7.20
2018-11-04T05:01:49.102Z,7.16
2018-11-04T05:04:17.776Z,7.14
2018-11-04T05:06:46.515Z,7.07
2018-11-04T05:09:15.395Z,7.11
2018-11-04T05:11:44.101Z,7.11
2018-11-04T05:14:12.817Z,7.03
2018-11-04T05:16:41.691Z,7.03
2018-11-04T05:19:10.391Z,7.12
2018-11-04T05:21:39.973Z,7.20
2018-11-04T05:24:08.787Z,7.09
2018-11-04T05:26:37.753Z,7.02
2018-11-04T05:29:06.641Z,7.04
2018-11-04T05:31:35.429Z,6.92
2018-11-04T05:34:04.197Z,6.95
2018-11-04T05:36:32.948Z,6.89
2018-11-04T05:39:01.806Z,6.89
2018-11-04T05:41:30.589Z,6.92
2018-11-04T05:43:59.300Z,6.96
2018-11-04T05:46:28.151Z,6.97
2018-11-04T05:48:56.860Z,6.90
2018-11-04T05:51:25.566Z,6.87
2018-11-04T05:53:56.937Z,6.81
2018-11-04T05:56:25.625Z,6.72
2018-11-04T05:58:54.338Z,6.75
2018-11-04T06:01:23.253Z,6.72
2018-11-04T06:03:52.002Z,6.73
2018-11-04T06:06:20.772Z,6.72
2018-11-04T06:08:49.813Z,6.72
2018-11-04T06:11:18.670Z,6.69
2018-11-04T06:13:47.413Z,6.69
2018-11-04T06:16:16.434Z,6.62
2018-11-04T06:18:45.126Z,6.58
2018-11-04T06:21:13.846Z,6.53
2018-11-04T06:23:42.638Z,6.57
2018-11-04T06:26:11.347Z,6.56
2018-11-04T06:28:40.270Z,6.59
2018-11-04T06:31:09.135Z,6.57
2018-11-04T06:33:37.832Z,6.60
2018-11-04T06:36:06.767Z,6.78
2018-11-04T06:38:35.525Z,6.94
2018-11-04T06:41:04.265Z,7.12
2018-11-04T06:43:32.984Z,7.24
2018-11-04T06:46:01.845Z,7.28
2018-11-04T06:48:30.539Z,7.12
2018-11-04T06:50:59.235Z,7.22
2018-11-04T06:53:28.092Z,7.40
2018-11-04T06:55:57.698Z,7.52
2018-11-04T06:58:26.406Z,7.51
2018-11-04T07:00:55.246Z,7.51
2018-11-04T07:03:24.022Z,7.45
2018-11-04T07:05:52.859Z,7.48
2018-11-04T07:08:21.787Z,7.60
2018-11-04T07:10:50.502Z,7.65
2018-11-04T07:13:19.417Z,7.65
2018-11-04T07:15:48.201Z,7.77
2018-11-04T07:18:16.939Z,7.76
2018-11-04T07:20:45.841Z,7.77
2018-11-04T07:23:14.906Z,7.81
2018-11-04T07:25:43.701Z,7.87
2018-11-04T07:28:12.300Z,7.92
2018-11-04T07:30:41.141Z,7.95
2018-11-04T07:33:10.345Z,8.01
2018-11-04T07:35:39.183Z,8.03
2018-11-04T07:38:08.116Z,8.09
2018-11-04T07:40:36.912Z,8.02
2018-11-04T07:43:06.217Z,8.14
2018-11-04T07:45:35.019Z,8.12
2018-11-04T07:48:03.768Z,8.23
2018-11-04T07:50:32.493Z,8.23
2018-11-04T07:53:01.369Z,8.23
2018-11-04T07:55:30.126Z,8.19
2018-11-04T07:57:58.827Z,8.21
2018-11-04T08:00:27.554Z,8.21
2018-11-04T08:02:56.259Z,8.27
2018-11-04T08:05:24.966Z,8.31
2018-11-04T08:07:53.888Z,8.41
2018-11-04T08:10:22.639Z,8.52
2018-11-04T08:12:51.359Z,8.59
2018-11-04T08:15:20.360Z,8.47
2018-11-04T08:17:49.155Z,8.38
2018-11-04T08:20:17.973Z,8.53
2018-11-04T08:22:46.701Z,8.56
2018-11-04T08:25:15.435Z,8.67
2018-11-04T08:27:44.375Z,8.83
2018-11-04T08:30:13.115Z,8.84
2018-11-04T08:32:41.839Z,8.90
2018-11-04T08:35:10.597Z,8.95
2018-11-04T08:37:40.541Z,8.82
2018-11-04T08:40:09.375Z,8.86
2018-11-04T08:42:38.004Z,8.92
2018-11-04T08:45:07.786Z,8.95
2018-11-04T08:47:36.581Z,9.09
2018-11-04T08:50:06.543Z,9.05
2018-11-04T08:52:35.713Z,8.90
2018-11-04T08:55:04.498Z,8.88
2018-11-04T08:57:33.191Z,8.84
2018-11-04T09:00:02.051Z,8.85
2018-11-04T09:02:30.765Z,8.84
2018-11-04T09:04:59.455Z,9.05
2018-11-04T09:07:28.218Z,9.09
2018-11-04T09:09:56.924Z,9.09
2018-11-04T09:12:25.599Z,9.23
2018-11-04T09:14:54.431Z,9.24
2018-11-04T09:17:23.317Z,9.27
2018-11-04T09:19:51.959Z,9.29
2018-11-04T09:22:20.856Z,9.27
2018-11-04T09:24:49.530Z,9.35
2018-11-04T09:27:18.279Z,9.40
2018-11-04T09:29:47.123Z,9.47
2018-11-04T09:32:15.855Z,9.49
2018-11-04T09:34:44.609Z,9.43
2018-11-04T09:37:13.444Z,9.40
2018-11-04T09:39:42.198Z,9.46
2018-11-04T09:42:10.943Z,9.49
2018-11-04T09:44:40.999Z,9.65
2018-11-04T09:47:10.539Z,9.69
2018-11-04T09:49:39.233Z,9.68
2018-11-04T09:52:08.067Z,9.77
2018-11-04T09:54:36.786Z,9.81
2018-11-04T09:57:05.583Z,9.86
2018-11-04T09:59:34.444Z,9.73
2018-11-04T10:02:03.474Z,9.85
2018-11-04T10:04:32.137Z,9.95
2018-11-04T10:07:00.930Z,9.96
2018-11-04T10:09:29.675Z,10.09
2018-11-04T10:11:58.386Z,10.15
2018-11-04T10:14:27.234Z,10.21
2018-11-04T10:16:55.899Z,10.27
2018-11-04T10:19:24.886Z,10.32
2018-11-04T10:21:53.600Z,10.44
2018-11-04T10:24:22.328Z,10.50
2018-11-04T10:26:51.282Z,10.64
2018-11-04T10:29:20.165Z,10.64
2018-11-04T10:31:48.912Z,10.82
2018-11-04T10:34:17.673Z,10.80
2018-11-04T10:36:46.511Z,10.73
2018-11-04T10:39:15.237Z,10.74
2018-11-04T10:41:44.421Z,10.88
2018-11-04T10:44:13.288Z,10.64
2018-11-04T10:46:41.989Z,10.83
2018-11-04T10:49:10.745Z,10.89
2018-11-04T10:51:39.445Z,10.87
2018-11-04T10:54:08.208Z,10.99
2018-11-04T10:56:36.985Z,10.98
2018-11-04T10:59:06.136Z,10.96
2018-11-04T11:01:34.880Z,10.88
2018-11-04T11:04:03.639Z,11.08
2018-11-04T11:06:32.385Z,11.21
2018-11-04T11:09:01.149Z,11.35
2018-11-04T11:11:29.853Z,11.49
2018-11-04T11:13:58.666Z,11.55
2018-11-04T11:16:27.354Z,11.58
2018-11-04T11:18:56.110Z,11.43
2018-11-04T11:21:25.082Z,11.49
2018-11-04T11:23:53.892Z,11.42
2018-11-04T11:26:22.651Z,11.54
2018-11-04T11:28:51.410Z,11.60
2018-11-04T11:31:20.102Z,11.65
2018-11-04T11:33:48.782Z,11.74
2018-11-04T11:36:17.591Z,11.67
2018-11-04T11:38:46.314Z,11.66
2018-11-04T11:41:15.023Z,11.67
2018-11-04T11:43:43.835Z,11.73
2018-11-04T11:46:12.599Z,11.73
2018-11-04T11:48:41.328Z,11.78
2018-11-04T11:51:10.734Z,11.81
2018-11-04T11:53:39.428Z,11.81
2018-11-04T11:56:08.164Z,11.97
2018-11-04T11:58:37.058Z,12.03
2018-11-04T12:01:05.864Z,11.98
2018-11-04T12:03:34.550Z,12.10
2018-11-04T12:06:03.331Z,12.19
2018-11-04T12:08:32.044Z,12.22
2018-11-04T12:11:00.718Z,12.38
2018-11-04T12:13:29.644Z,12.45
2018-11-04T12:15:58.435Z,12.22
2018-11-04T12:18:27.223Z,12.21
2018-11-04T12:20:56.121Z,12.23
2018-11-04T12:23:24.903Z,12.27
2018-11-04T12:25:53.646Z,12.36
2018-11-04T12:28:22.545Z,12.34
2018-11-04T12:30:51.230Z,12.43
2018-11-04T12:33:19.934Z,12.49
2018-11-04T12:35:48.816Z,12.50
2018-11-04T12:38:17.530Z,12.44
2018-11-04T12:40:46.310Z,12.43
2018-11-04T12:43:15.143Z,12.47
2018-11-04T12:45:43.951Z,12.43
2018-11-04T12:48:12.584Z,12.54
2018-11-04T12:50:41.974Z,12.60
2018-11-04T12:53:10.879Z,12.44
2018-11-04T12:55:39.559Z,12.49
2018-11-04T12:58:08.306Z,12.43
2018-11-04T13:00:37.115Z,12.48
2018-11-04T13:03:06.512Z,12.52
2018-11-04T13:05:35.288Z,12.46
2018-11-04T13:08:04.082Z,12.35
2018-11-04T13:10:32.919Z,12.41
2018-11-04T13:13:01.710Z,12.43
2018-11-04T13:15:30.487Z,12.45
2018-11-04T13:17:59.230Z,12.48
2018-11-04T13:20:28.114Z,12.49
2018-11-04T13:22:56.820Z,12.40
2018-11-04T13:25:25.588Z,12.25
2018-11-04T13:27:54.322Z,12.21
2018-11-04T13:30:23.026Z,12.21
2018-11-04T13:32:51.778Z,12.30
2018-11-04T13:35:20.683Z,12.46
2018-11-04T13:37:49.461Z,12.46
2018-11-04T13:40:18.179Z,12.53
2018-11-04T13:42:47.135Z,12.56
2018-11-04T13:45:15.895Z,12.64
2018-11-04T13:47:44.566Z,12.68
2018-11-04T13:50:14.744Z,12.59
2018-11-04T13:52:44.260Z,12.69
2018-11-04T13:55:13.062Z,12.62
2018-11-04T13:57:42.179Z,12.66
2018-11-04T14:00:13.948Z,12.53
2018-11-04T14:02:43.654Z,12.44
2018-11-04T14:05:12.464Z,12.46
2018-11-04T14:07:42.067Z,12.43
2018-11-04T14:10:12.938Z,12.51
2018-11-04T14:12:42.362Z,12.57
2018-11-04T14:15:11.486Z,12.61
2018-11-04T14:17:41.245Z,12.67
2018-11-04T14:20:11.314Z,12.64
2018-11-04T14:22:40.469Z,12.56
2018-11-04T14:25:12.194Z,12.49
2018-11-04T14:27:41.213Z,12.51
2018-11-04T14:30:12.057Z,12.51
2018-11-04T14:32:41.412Z,12.39
2018-11-04T14:35:11.928Z,12.32
2018-11-04T14:37:42.644Z,12.28
2018-11-04T14:40:13.361Z,12.31
2018-11-04T14:42:43.157Z,12.25
2018-11-04T14:45:14.333Z,12.36
2018-11-04T14:47:43.074Z,12.44
2018-11-04T14:52:57.964Z,12.44
2018-11-04T14:55:26.682Z,12.45
2018-11-04T14:57:55.388Z,12.31
2018-11-04T15:00:24.110Z,12.32
2018-11-04T15:02:52.903Z,12.33
2018-11-04T15:05:22.027Z,12.42
2018-11-04T15:07:50.909Z,12.43
2018-11-04T15:10:19.745Z,12.27
2018-11-04T15:12:48.470Z,12.12
2018-11-04T15:15:17.953Z,12.04
2018-11-04T15:17:46.750Z,11.93
2018-11-04T15:20:15.490Z,11.92
2018-11-04T15:22:48.979Z,11.99
2018-11-04T15:25:19.974Z,11.98
2018-11-04T15:27:49.231Z,12.01
2018-11-04T15:30:18.090Z,11.94
2018-11-04T15:32:48.220Z,11.98
2018-11-04T15:35:17.928Z,12.05
2018-11-04T15:37:46.836Z,11.97
2018-11-04T15:40:16.488Z,11.92
2018-11-04T15:42:45.282Z,11.90
2018-11-04T15:45:15.100Z,11.94
2018-11-04T15:47:46.472Z,12.03
2018-11-04T15:50:17.470Z,12.02
2018-11-04T15:52:46.838Z,11.95
2018-11-04T15:55:15.771Z,11.90
2018-11-04T15:57:44.502Z,11.87
2018-11-04T16:00:14.623Z,11.88
2018-11-04T16:02:43.504Z,11.82
2018-11-04T16:05:12.608Z,11.78
2018-11-04T16:07:41.420Z,11.70
2018-11-04T16:10:10.987Z,11.72
2018-11-04T16:12:40.099Z,11.74
2018-11-04T16:15:10.875Z,11.79
2018-11-04T16:17:39.755Z,11.78
2018-11-04T16:20:10.426Z,11.74
2018-11-04T16:22:39.825Z,11.76
2018-11-04T16:25:08.982Z,11.66
2018-11-04T16:27:37.924Z,11.67
2018-11-04T16:30:08.496Z,11.65
2018-11-04T16:32:37.722Z,11.69
2018-11-04T16:35:07.557Z,11.73
2018-11-04T16:37:36.301Z,11.82
2018-11-04T16:40:05.443Z,11.72
2018-11-04T16:42:34.151Z,11.70
2018-11-04T16:45:03.263Z,11.66
2018-11-04T16:47:32.163Z,11.60
2018-11-04T16:50:00.998Z,11.60
2018-11-04T16:52:29.833Z,11.66
2018-11-04T16:54:58.690Z,11.66
2018-11-04T16:57:27.763Z,11.71
2018-11-04T16:59:56.537Z,11.73
2018-11-04T17:02:25.366Z,11.68
2018-11-04T17:04:54.288Z,11.67
2018-11-04T17:07:23.007Z,11.73
2018-11-04T17:09:51.949Z,11.79
2018-11-04T17:12:20.690Z,11.71
2018-11-04T17:14:49.783Z,11.78
2018-11-04T17:17:18.674Z,11.88
2018-11-04T17:19:47.465Z,11.84
2018-11-04T17:22:16.287Z,11.88
2018-11-04T17:24:45.142Z,11.81
2018-11-04T17:27:13.934Z,11.77
2018-11-04T17:29:42.827Z,11.69
2018-11-04T17:32:11.666Z,11.68
2018-11-04T17:34:41.447Z,11.72
2018-11-04T17:37:10.562Z,11.72
2018-11-04T17:39:39.311Z,11.72
2018-11-04T17:42:08.051Z,11.65
2018-11-04T17:44:36.879Z,11.79
2018-11-04T17:47:05.762Z,11.72
2018-11-04T17:49:34.505Z,11.74
2018-11-04T17:52:03.267Z,11.70
2018-11-04T17:54:32.283Z,11.68
2018-11-04T17:57:01.049Z,11.69
2018-11-04T17:59:29.805Z,11.68
2018-11-04T18:01:58.760Z,11.72
2018-11-04T18:04:27.498Z,11.67
2018-11-04T18:06:56.371Z,11.62
2018-11-04T18:09:25.220Z,11.61
2018-11-04T18:11:53.909Z,11.67
2018-11-04T18:14:22.696Z,11.61
2018-11-04T18:16:51.625Z,11.57
2018-11-04T18:19:20.422Z,11.63
2018-11-04T18:21:49.198Z,11.71
2018-11-04T18:24:18.095Z,11.76
2018-11-04T18:26:46.841Z,11.72
2018-11-04T18:29:15.574Z,11.71
2018-11-04T18:31:44.466Z,11.70
2018-11-04T18:34:13.636Z,11.78
2018-11-04T18:36:42.370Z,11.70
2018-11-04T18:39:12.043Z,11.76
2018-11-04T18:41:41.622Z,11.70
2018-11-04T18:44:10.461Z,11.71
2018-11-04T18:46:39.281Z,11.65
2018-11-04T18:49:08.084Z,11.68
2018-11-04T18:51:37.188Z,11.75
2018-11-04T18:54:06.137Z,11.77
2018-11-04T18:56:36.633Z,11.75
2018-11-04T18:59:05.895Z,11.72
2018-11-04T19:01:35.076Z,11.77
2018-11-04T19:04:03.994Z,11.86
2018-11-04T19:06:32.772Z,11.79
2018-11-04T19:09:02.016Z,11.75
2018-11-04T19:11:30.954Z,11.75
2018-11-04T19:13:59.702Z,11.76
2018-11-04T19:16:28.577Z,11.76
2018-11-04T19:18:58.300Z,11.71
2018-11-04T19:21:27.053Z,11.70
2018-11-04T19:23:55.957Z,11.71
2018-11-04T19:26:24.702Z,11.76
2018-11-04T19:28:53.506Z,11.79
2018-11-04T19:31:22.594Z,11.70
2018-11-04T19:33:51.624Z,11.72
2018-11-04T19:36:20.702Z,11.76
2018-11-04T19:38:49.550Z,11.87
2018-11-04T19:41:18.282Z,11.76
2018-11-04T19:43:47.065Z,11.74
2018-11-04T19:46:15.871Z,11.81
2018-11-04T19:48:44.703Z,11.78
2018-11-04T19:51:13.615Z,11.80
2018-11-04T19:53:42.365Z,11.76
2018-11-04T19:56:12.317Z,11.82
2018-11-04T19:58:41.839Z,11.85
2018-11-04T20:01:11.171Z,11.80
2018-11-04T20:03:39.968Z,11.88
2018-11-04T20:06:08.762Z,11.79
2018-11-04T20:08:40.700Z,11.84
2018-11-04T20:11:09.771Z,11.84
2018-11-04T20:13:44.199Z,11.83
2018-11-04T20:16:12.879Z,11.69
2018-11-04T20:18:47.702Z,11.56
2018-11-04T20:21:16.627Z,11.63
2018-11-04T20:23:45.457Z,11.65
2018-11-04T20:26:15.602Z,11.70
2018-11-04T20:28:44.442Z,11.76
2018-11-04T20:31:18.557Z,11.80
2018-11-04T20:33:49.432Z,11.81
2018-11-04T20:36:18.593Z,11.86
2018-11-04T20:41:47.386Z,11.93
2018-11-04T20:44:16.525Z,11.94
2018-11-04T20:46:45.291Z,12.03
2018-11-04T20:49:19.262Z,11.98
2018-11-04T20:51:48.297Z,11.87
2018-11-04T20:54:16.998Z,11.83
2018-11-04T20:56:51.041Z,11.81
2018-11-04T20:59:19.888Z,11.82
2018-11-04T21:01:48.659Z,11.80
2018-11-04T21:04:17.514Z,11.77
2018-11-04T21:06:46.406Z,11.75
2018-11-04T21:09:15.225Z,11.86
2018-11-04T21:11:44.177Z,11.89
2018-11-04T21:14:12.994Z,11.87
2018-11-04T21:16:42.103Z,11.91
2018-11-04T21:19:10.958Z,11.89
2018-11-04T21:21:39.749Z,11.93
2018-11-04T21:24:08.591Z,11.91
2018-11-04T21:26:37.772Z,11.90
2018-11-04T21:29:06.760Z,11.85
2018-11-04T21:31:35.386Z,11.87
2018-11-04T21:34:04.274Z,11.82
2018-11-04T21:36:33.158Z,11.71
2018-11-04T21:39:01.848Z,11.74
2018-11-04T21:41:30.646Z,11.79
2018-11-04T21:43:59.574Z,11.78
2018-11-04T21:46:28.206Z,11.73
2018-11-04T21:48:57.085Z,11.79
2018-11-04T21:51:25.824Z,11.81
2018-11-04T21:53:54.536Z,11.81
2018-11-04T21:56:23.487Z,11.75
2018-11-04T21:58:52.089Z,11.75
2018-11-04T22:01:20.941Z,11.88
2018-11-04T22:03:50.180Z,11.86
2018-11-04T22:06:18.714Z,11.91
2018-11-04T22:08:47.470Z,11.80
2018-11-04T22:11:16.360Z,11.87
2018-11-04T22:13:45.190Z,11.84
2018-11-04T22:16:14.057Z,11.84
2018-11-04T22:18:43.395Z,11.84
2018-11-04T22:21:12.215Z,11.81
2018-11-04T22:23:42.011Z,11.84
2018-11-04T22:26:10.945Z,11.78
2018-11-04T22:28:39.734Z,11.90
2018-11-04T22:31:09.039Z,11.86
2018-11-04T22:33:37.908Z,11.75
2018-11-04T22:36:06.866Z,11.81
2018-11-04T22:38:35.633Z,11.82
2018-11-04T22:41:05.141Z,11.92
2018-11-04T22:43:33.902Z,11.95
2018-11-04T22:46:03.375Z,11.93
2018-11-04T22:48:32.571Z,11.91
2018-11-04T22:51:01.429Z,11.97
2018-11-04T22:53:30.206Z,12.08
2018-11-04T22:55:59.266Z,12.07
2018-11-04T22:58:27.978Z,12.09
2018-11-04T23:01:01.717Z,12.07
2018-11-04T23:03:30.461Z,12.05
2018-11-04T23:06:07.309Z,11.99
2018-11-04T23:08:36.060Z,11.98
2018-11-04T23:11:05.041Z,12.00
2018-11-04T23:13:33.921Z,11.98
2018-11-04T23:16:02.707Z,12.01
2018-11-04T23:18:31.484Z,11.99
2018-11-04T23:21:00.541Z,12.02
2018-11-04T23:23:29.285Z,11.99
2018-11-04T23:25:58.090Z,11.96
2018-11-04T23:28:26.925Z,11.95
2018-11-04T23:30:55.638Z,11.98
2018-11-04T23:33:24.356Z,11.94
2018-11-04T23:35:53.179Z,11.92
2018-11-04T23:38:21.912Z,11.84
2018-11-04T23:40:50.678Z,11.87
2018-11-04T23:43:19.777Z,11.89
2018-11-04T23:45:48.501Z,11.94
2018-11-04T23:48:17.350Z,11.92
2018-11-04T23:50:46.182Z,11.93
2018-11-04T23:53:14.914Z,11.99
2018-11-04T23:55:43.699Z,11.93
2018-11-04T23:58:12.502Z,11.88
